Time;durP1;ratioP1;P1;durP2;ratioP2;P2;SDS_P1;SDS_P2;PMS_P1;PMS_P2;Temp;Humidity;BMP_temperature;BMP_pressure;BME280_temperature;BME280_humidity;BME280_pressure;Samples;Min_cycle;Max_cycle;Signal;HPM_P1;HPM_P2
2022/03/19 01:38:19;;;;;;;15.77;7.10;;;;;;;7.26;56.18;104527.06;5276216;23;121933;31
2022/03/19 04:32:23;;;;;;;21.58;5.65;;;;;;;6.63;56.46;104521.56;6178745;22;120820;31
2022/03/19 08:07:48;;;;;;;16.42;4.55;;;;;;;9.82;56.32;104541.53;6240849;22;122208;-88
2022/03/19 08:10:24;;;;;;;20.52;5.22;;;;;;;9.44;56.46;104467.25;6133101;22;118768;-87
2022/03/19 08:13:05;;;;;;;22.17;4.72;;;;;;;9.53;55.88;104462.41;6159824;22;120002;-87
2022/03/19 08:34:29;;;;;;;12.65;4.32;;;;;;;10.45;53.79;104527.88;6209312;22;120464;-90
2022/03/19 08:37:12;;;;;;;17.13;4.38;;;;;;;10.57;53.32;104529.72;6174869;22;120018;-89
2022/03/19 08:45:55;;;;;;;16.75;4.13;;;;;;;10.39;53.69;104504.56;6223003;22;121605;-89
2022/03/19 08:48:27;;;;;;;15.65;4.10;;;;;;;10.32;53.64;104467.94;6144016;22;118328;-90
2022/03/19 08:50:53;;;;;;;17.67;4.32;;;;;;;10.50;54.37;104484.81;6166106;22;118873;-89
2022/03/19 08:53:28;;;;;;;14.30;4.60;;;;;;;10.78;53.04;104515.66;6164675;22;123084;-90
2022/03/19 08:55:56;;;;;;;14.98;4.38;;;;;;;10.97;52.30;104545.13;6139122;22;119436;-89
2022/03/19 08:58:22;;;;;;;14.00;4.20;;;;;;;10.98;52.93;104547.53;6164991;22;121895;-89
2022/03/19 09:00:57;;;;;;;;;;;;;;;;;;;;;
2022/03/19 09:03:41;;;;;;;14.15;4.50;;;;;;;10.96;52.95;104522.34;6194013;22;119354;-89
2022/03/19 09:06:07;;;;;;;15.57;4.30;;;;;;;11.14;52.75;104543.94;6163445;22;122920;-90
2022/03/19 09:08:53;;;;;;;15.02;3.65;;;;;;;10.95;52.03;104503.50;6147326;22;119307;-92
2022/03/19 09:11:20;;;;;;;15.80;4.55;;;;;;;11.12;53.42;104521.47;6139322;22;120730;-90
2022/03/19 09:13:46;;;;;;;12.60;4.22;;;;;;;11.32;52.51;104539.59;6163454;22;122976;-89
2022/03/19 09:16:12;;;;;;;15.38;4.50;;;;;;;11.02;52.84;104476.94;6164151;22;119698;-89
2022/03/19 09:18:39;;;;;;;11.40;3.78;;;;;;;11.45;52.39;104538.28;6139165;22;121624;-89
2022/03/19 09:21:05;;;;;;;12.18;4.22;;;;;;;11.27;52.83;104510.44;6187635;22;123014;-89
2022/03/19 09:23:30;;;;;;;13.73;4.25;;;;;;;11.36;52.77;104504.72;6143640;22;119269;-90
2022/03/19 09:25:58;;;;;;;10.32;3.72;;;;;;;11.74;51.97;104547.06;6163363;22;120179;-89
2022/03/19 09:28:24;;;;;;;17.13;4.00;;;;;;;11.69;51.46;104520.66;6163751;22;119767;-89
2022/03/19 09:30:51;;;;;;;12.45;4.25;;;;;;;11.52;51.31;104488.91;6139106;22;121684;-89
2022/03/19 09:33:19;;;;;;;11.90;4.03;;;;;;;11.54;52.20;104502.31;6138539;22;122567;-90
2022/03/19 09:35:48;;;;;;;10.43;4.10;;;;;;;11.48;50.90;104470.75;6138219;22;119823;-89
2022/03/19 09:38:17;;;;;;;13.75;4.05;;;;;;;11.81;51.33;104520.50;6140321;22;121832;-90
2022/03/19 09:40:46;;;;;;;14.30;4.35;;;;;;;11.58;50.63;104470.94;6215597;22;119830;-91
2022/03/19 09:43:14;;;;;;;10.35;3.40;;;;;;;11.69;50.36;104493.97;6139875;22;119788;-90
2022/03/19 09:45:41;;;;;;;12.15;4.00;;;;;;;11.73;49.23;104495.97;6168462;22;119579;-91
2022/03/19 09:48:07;;;;;;;12.02;3.50;;;;;;;11.56;49.73;104475.22;6164133;22;119759;-91
2022/03/19 09:50:41;;;;;;;12.85;3.55;;;;;;;11.82;49.79;104513.06;6189713;22;121948;-90
2022/03/19 09:53:08;;;;;;;12.88;4.20;;;;;;;11.66;49.70;104493.91;6163689;22;122678;-92
2022/03/19 09:55:44;;;;;;;10.52;3.67;;;;;;;11.89;49.85;104535.22;6164455;22;119415;-91
2022/03/19 09:58:12;;;;;;;11.65;3.95;;;;;;;11.53;50.03;104474.00;6163899;22;121442;-89
2022/03/19 10:00:38;;;;;;;13.57;4.22;;;;;;;11.51;50.49;104457.06;6163429;22;120489;-90
2022/03/19 10:03:08;;;;;;;13.88;3.45;;;;;;;12.03;50.52;104531.91;6138702;22;119384;-92
2022/03/19 10:08:36;;;;;;;15.23;4.63;;;;;;;12.10;50.83;104529.28;6164392;22;119354;-91
2022/03/19 10:11:12;;;;;;;16.45;4.95;;;;;;;12.14;50.84;104530.13;6138933;22;122384;-91
2022/03/19 10:13:44;;;;;;;14.63;4.40;;;;;;;12.10;50.75;104530.09;6137592;22;122916;-90
2022/03/19 10:16:11;;;;;;;14.60;4.55;;;;;;;12.04;50.60;104530.72;6138612;22;119781;-92
2022/03/19 10:18:43;;;;;;;12.82;4.50;;;;;;;11.99;50.70;104535.38;6163909;22;119191;-90
2022/03/19 10:21:16;;;;;;;15.40;4.40;;;;;;;12.04;50.99;104525.22;6138301;22;122154;-90
2022/03/19 10:23:42;;;;;;;11.23;4.22;;;;;;;12.08;51.05;104517.84;6139035;22;119288;-88
2022/03/19 10:26:22;;;;;;;9.77;3.38;;;;;;;12.14;49.77;104519.13;6138801;22;121018;-89
2022/03/19 10:28:59;;;;;;;11.68;3.65;;;;;;;12.05;49.66;104489.09;6143488;22;122468;-90
2022/03/19 10:31:56;;;;;;;8.80;3.20;;;;;;;12.20;49.56;104496.41;6168756;22;120539;-90
2022/03/19 10:34:31;;;;;;;9.10;3.50;;;;;;;11.85;48.98;104436.09;6140238;22;122796;-91
2022/03/19 10:36:58;;;;;;;8.77;3.13;;;;;;;12.24;49.27;104483.50;6140437;22;119391;-91
2022/03/19 10:39:27;;;;;;;8.77;3.10;;;;;;;12.12;49.35;104453.44;6165689;22;121335;-90
2022/03/19 10:42:00;;;;;;;8.70;3.40;;;;;;;12.45;48.72;104505.06;6189821;22;122558;-89
2022/03/19 10:44:28;;;;;;;9.25;3.25;;;;;;;12.24;49.08;104461.47;6139636;22;119420;-89
2022/03/19 10:47:03;;;;;;;9.23;3.08;;;;;;;11.99;49.22;104421.75;6165064;22;121762;-91
2022/03/19 10:49:32;;;;;;;10.13;3.65;;;;;;;12.52;49.70;104493.34;6139478;22;121166;-91
2022/03/19 10:52:02;;;;;;;11.15;4.07;;;;;;;12.57;49.00;104504.06;6169818;22;120933;-90
2022/03/19 10:54:31;;;;;;;9.50;3.58;;;;;;;12.26;48.75;104459.16;6138765;22;122828;-90
2022/03/19 10:57:04;;;;;;;8.15;3.00;;;;;;;12.28;48.48;104469.78;6140609;22;119650;-90
2022/03/19 10:59:42;;;;;;;7.03;3.47;;;;;;;12.21;48.88;104461.44;6192233;22;119552;-89
2022/03/19 11:02:11;;;;;;;9.52;3.25;;;;;;;12.05;48.93;104431.28;6138278;22;122668;-89
2022/03/19 11:04:40;;;;;;;8.55;3.25;;;;;;;12.27;49.39;104469.00;6216746;22;119290;-88
2022/03/19 11:07:31;;;;;;;8.93;3.53;;;;;;;12.03;49.26;104417.09;6190193;22;121962;-89
2022/03/19 11:10:03;;;;;;;10.88;3.53;;;;;;;11.98;48.81;104422.94;6138799;22;122512;-90
2022/03/19 11:12:36;;;;;;;8.23;3.70;;;;;;;12.36;48.49;104484.47;6190255;22;119259;-89
2022/03/19 11:15:09;;;;;;;9.17;3.93;;;;;;;12.37;49.59;104488.81;6144945;22;122067;-91
2022/03/19 11:17:38;;;;;;;8.98;4.03;;;;;;;12.19;49.12;104464.56;6138865;22;119511;-90
2022/03/19 11:20:07;;;;;;;10.23;4.05;;;;;;;12.42;49.53;104494.00;6190080;22;122141;-91
2022/03/19 11:22:39;;;;;;;10.25;4.15;;;;;;;12.29;48.89;104487.88;6139036;22;123060;-90
2022/03/19 11:25:26;;;;;;;9.57;4.03;;;;;;;12.30;49.45;104483.97;6139366;22;119547;-90
2022/03/19 11:28:01;;;;;;;10.73;3.60;;;;;;;12.28;50.38;104481.59;6164750;22;121953;-90
2022/03/19 11:30:34;;;;;;;11.55;4.03;;;;;;;12.26;49.87;104461.91;6163957;22;123483;-89
2022/03/19 11:33:07;;;;;;;7.13;3.75;;;;;;;12.45;49.95;104493.25;6165523;22;119539;-92
2022/03/19 11:35:38;;;;;;;9.27;3.75;;;;;;;12.43;49.19;104490.88;6140016;22;122102;-89
2022/03/19 11:38:11;;;;;;;13.13;4.00;;;;;;;12.29;49.66;104468.63;6145046;22;123701;-90
2022/03/19 11:40:42;;;;;;;10.10;3.85;;;;;;;12.49;50.19;104485.84;6140704;22;121969;-92
2022/03/19 11:43:09;;;;;;;8.45;3.78;;;;;;;12.52;49.79;104474.06;6139922;22;123632;-93
2022/03/19 11:46:00;;;;;;;12.88;4.45;;;;;;;12.54;50.30;104467.06;6140235;22;119424;-93
2022/03/19 11:48:35;;;;;;;13.70;4.35;;;;;;;12.57;50.40;104460.00;6165414;22;122757;-90
2022/03/19 11:51:22;;;;;;;9.82;4.13;;;;;;;12.61;49.98;104455.31;6165096;22;120289;-90
2022/03/19 11:54:09;;;;;;;11.25;4.03;;;;;;;12.61;49.96;104452.56;6139140;22;119889;-90
2022/03/19 11:56:35;;;;;;;12.23;6.00;;;;;;;12.63;49.73;104453.00;6139523;22;122168;-90
2022/03/19 11:59:04;;;;;;;7.53;2.88;;;;;;;12.60;47.91;104429.75;6139327;22;123209;-89
2022/03/19 12:01:48;;;;;;;9.23;2.78;;;;;;;12.74;47.86;104448.41;6195029;22;119462;-90
2022/03/19 12:04:16;;;;;;;6.20;2.55;;;;;;;12.72;46.52;104427.91;6164703;22;120268;-90
2022/03/19 12:06:55;;;;;;;5.43;2.80;;;;;;;12.81;47.65;104448.50;6139832;22;119392;-89
2022/03/19 12:09:31;;;;;;;6.47;3.00;;;;;;;12.78;46.28;104432.72;6139647;22;121664;-91
2022/03/19 12:12:15;;;;;;;7.65;2.90;;;;;;;12.84;47.66;104428.47;6139187;22;123145;-89
2022/03/19 12:14:41;;;;;;;7.28;3.00;;;;;;;12.83;47.29;104424.13;6165164;22;120422;-89
2022/03/19 12:17:33;;;;;;;9.77;3.92;;;;;;;12.86;46.84;104426.13;6139778;22;122014;-92
2022/03/19 12:20:02;;;;;;;6.15;2.92;;;;;;;12.80;47.22;104415.81;6158341;22;120974;-91
2022/03/19 12:22:39;;;;;;;9.57;3.00;;;;;;;12.86;46.86;104422.59;6169950;22;119933;-93
2022/03/19 12:25:18;;;;;;;7.72;3.20;;;;;;;12.89;46.62;104422.63;6189849;22;122585;-90
2022/03/19 12:27:57;;;;;;;7.85;3.75;;;;;;;12.84;47.28;104409.19;6142049;22;119220;-89
2022/03/19 12:30:25;;;;;;;7.50;3.28;;;;;;;12.89;47.35;104417.09;6139973;22;122203;-89
2022/03/19 12:32:56;;;;;;;8.43;3.83;;;;;;;12.93;47.25;104408.88;6139068;22;121961;-91
2022/03/19 12:35:43;;;;;;;7.35;3.38;;;;;;;12.82;46.43;104394.97;6140680;22;119890;-93
2022/03/19 12:38:09;;;;;;;7.22;3.83;;;;;;;12.53;47.29;104346.19;6140463;22;122602;-93
2022/03/19 12:43:21;;;;;;;9.77;3.80;;;;;;;12.95;46.76;104402.97;6218044;22;119272;-91
2022/03/19 12:45:54;;;;;;;;;;;;;;;12.93;47.39;104397.84;6170941;22;121440;-92
2022/03/19 12:48:24;;;;;;;7.80;3.88;;;;;;;12.89;47.57;104386.78;6140198;22;119347;-90
2022/03/19 12:50:54;;;;;;;6.78;3.92;;;;;;;12.84;47.38;104380.84;6164665;22;120303;-91
2022/03/19 12:53:37;;;;;;;6.82;4.03;;;;;;;12.93;46.96;104392.34;6139281;22;124091;-90
2022/03/19 12:56:12;;;;;;;7.75;3.97;;;;;;;12.44;47.49;104331.94;6164681;22;120011;-90
2022/03/19 12:58:44;;;;;;;5.20;3.95;;;;;;;12.73;47.18;104352.34;6166041;22;121709;-89
2022/03/19 13:01:30;;;;;;;8.05;4.10;;;;;;;12.81;47.01;104370.56;6165801;22;123073;-91
2022/03/19 13:03:58;;;;;;;7.00;3.55;;;;;;;12.68;46.24;104359.00;6165389;22;119925;-92
2022/03/19 13:06:36;;;;;;;6.80;3.85;;;;;;;12.94;47.15;104396.69;6140135;22;122811;-90
2022/03/19 13:09:07;;;;;;;11.57;4.20;;;;;;;12.74;47.43;104360.22;6145415;22;122323;-91
2022/03/19 13:11:49;;;;;;;8.05;4.55;;;;;;;12.95;47.46;104387.25;6167322;22;120509;-89
2022/03/19 13:14:19;;;;;;;9.32;4.47;;;;;;;12.94;46.80;104391.16;6139506;22;123031;-90
2022/03/19 13:16:54;;;;;;;8.50;4.50;;;;;;;12.44;46.15;104307.16;6140203;22;119384;-90
2022/03/19 13:19:27;;;;;;;10.43;4.53;;;;;;;12.82;47.24;104372.16;6140960;22;121861;-90
2022/03/19 13:21:56;;;;;;;11.90;4.53;;;;;;;12.56;47.62;104327.00;6138982;22;123057;-90
2022/03/19 13:24:25;;;;;;;9.75;4.80;;;;;;;12.86;46.93;104362.75;6140591;22;119347;-90
2022/03/19 13:26:57;;;;;;;9.27;4.22;;;;;;;12.53;47.83;104299.38;6140044;22;120561;-91
2022/03/19 13:29:32;;;;;;;7.32;4.65;;;;;;;12.50;47.22;104289.91;6140457;22;121782;-90
2022/03/19 13:32:11;;;;;;;10.52;4.60;;;;;;;12.53;46.63;104296.63;6145816;22;119261;-91
2022/03/19 13:34:46;;;;;;;7.22;4.43;;;;;;;12.69;46.80;104312.94;6164132;22;122712;-90
2022/03/19 13:37:20;;;;;;;7.72;4.63;;;;;;;12.71;47.35;104311.41;6138533;22;119556;-91
2022/03/19 13:40:04;;;;;;;8.48;4.60;;;;;;;12.96;47.01;104343.94;6168234;22;119324;-88
2022/03/19 13:42:36;;;;;;;7.40;4.70;;;;;;;12.76;46.66;104308.28;6163962;22;120017;-89
2022/03/19 13:45:12;;;;;;;8.45;4.18;;;;;;;12.73;46.02;104303.53;6165040;22;119388;-90
2022/03/19 13:47:45;;;;;;;8.52;4.80;;;;;;;13.02;46.52;104336.94;6190052;22;119795;-93
2022/03/19 13:50:15;;;;;;;8.15;4.43;;;;;;;12.86;47.13;104310.38;6140289;22;122767;-90
2022/03/19 13:52:54;;;;;;;8.73;4.60;;;;;;;13.03;46.48;104336.56;6140617;22;120070;-90
2022/03/19 13:55:20;;;;;;;;;;;;;;;13.04;46.50;104348.38;6169330;22;119436;-91
2022/03/19 13:57:55;;;;;;;6.00;4.40;;;;;;;12.95;46.43;104317.56;6165370;22;119396;-91
2022/03/19 14:00:31;;;;;;;8.80;4.80;;;;;;;12.97;46.94;104324.25;6164604;22;122289;-91
2022/03/19 14:03:05;;;;;;;7.97;4.47;;;;;;;12.72;46.44;104273.63;6163808;22;123039;-90
2022/03/19 14:05:33;;;;;;;8.95;4.72;;;;;;;12.62;46.93;104253.06;6139187;22;119645;-90
2022/03/19 14:08:12;;;;;;;7.75;4.57;;;;;;;12.89;47.11;104275.78;6164737;22;121823;-89
2022/03/19 14:10:42;;;;;;;11.50;5.07;;;;;;;12.60;46.23;104241.66;6189088;22;119974;-90
2022/03/19 14:13:17;;;;;;;8.82;4.78;;;;;;;12.81;46.93;104272.16;6139893;22;119422;-91
2022/03/19 14:15:50;;;;;;;8.18;4.60;;;;;;;12.74;46.04;104266.56;6138862;22;121628;-92
2022/03/19 14:18:28;;;;;;;6.88;4.80;;;;;;;12.98;46.28;104297.50;6168729;22;123219;-91
2022/03/19 14:20:55;;;;;;;5.55;4.20;;;;;;;12.95;46.14;104295.50;6164349;22;120283;-91
2022/03/19 14:23:22;;;;;;;6.97;4.90;;;;;;;12.81;45.71;104287.91;6138613;22;121593;-92
2022/03/19 14:25:48;;;;;;;5.32;3.97;;;;;;;12.79;45.46;104274.50;6138614;22;119523;-90
2022/03/19 14:28:16;;;;;;;6.05;3.95;;;;;;;12.64;45.64;104256.25;6138460;22;121853;-92
2022/03/19 14:30:43;;;;;;;7.03;4.45;;;;;;;12.91;45.94;104298.22;6163443;22;122817;-90
2022/03/19 14:33:10;;;;;;;5.72;3.92;;;;;;;12.62;44.97;104252.28;6138608;22;119477;-91
2022/03/19 14:35:38;;;;;;;7.32;4.20;;;;;;;12.36;44.83;104207.16;6164340;22;121697;-89
2022/03/19 14:38:04;;;;;;;6.03;3.97;;;;;;;12.49;45.66;104236.00;6142786;22;122569;-89
2022/03/19 14:40:32;;;;;;;5.57;4.15;;;;;;;12.60;45.37;104230.63;6164680;22;121411;-92
2022/03/19 14:43:03;;;;;;;5.57;3.60;;;;;;;12.55;44.54;104228.22;6139911;22;122967;-93
2022/03/19 14:45:29;;;;;;;6.50;4.25;;;;;;;12.63;45.15;104238.13;6138893;22;119546;-89
2022/03/19 14:47:55;;;;;;;4.72;3.70;;;;;;;12.55;45.47;104214.44;6138742;22;121693;-90
2022/03/19 14:50:24;;;;;;;5.53;3.58;;;;;;;12.51;44.14;104206.13;6138436;22;122663;-89
2022/03/19 14:52:50;;;;;;;9.68;3.78;;;;;;;12.67;44.19;104227.94;6163721;22;119986;-90
2022/03/19 14:55:23;;;;;;;5.32;3.50;;;;;;;12.42;43.73;104191.88;6138700;22;121583;-88
2022/03/19 14:57:52;;;;;;;6.38;3.53;;;;;;;12.59;43.22;104226.28;6188846;22;120861;-88
2022/03/19 15:00:18;;;;;;;6.00;3.35;;;;;;;12.77;43.62;104252.03;6143884;22;119563;-91
2022/03/19 15:02:44;;;;;;;7.32;3.45;;;;;;;12.76;44.63;104247.69;6163128;22;122861;-89
2022/03/19 15:05:12;;;;;;;6.90;3.58;;;;;;;12.64;43.76;104223.19;6138674;22;119506;-89
2022/03/19 15:07:39;;;;;;;6.55;3.58;;;;;;;12.64;43.53;104212.16;6138691;22;121895;-90
2022/03/19 15:10:05;;;;;;;7.47;3.80;;;;;;;12.79;44.36;104235.94;6162850;22;122723;-89
2022/03/19 15:12:30;;;;;;;6.20;3.30;;;;;;;12.83;43.47;104236.75;6163853;22;119767;-89
2022/03/19 15:14:56;;;;;;;4.03;3.20;;;;;;;12.82;43.50;104237.13;6164095;22;119205;-91
2022/03/19 15:17:30;;;;;;;3.85;2.65;;;;;;;12.62;43.39;104194.44;6164272;22;121435;-90
2022/03/19 15:19:56;;;;;;;5.30;2.75;;;;;;;12.73;43.36;104203.56;6163929;22;119442;-90
2022/03/19 15:22:24;;;;;;;5.38;3.00;;;;;;;12.73;42.27;104200.81;6169374;22;121715;-91
2022/03/19 15:25:09;;;;;;;5.15;2.60;;;;;;;12.84;42.11;104223.75;6147143;22;119511;-91
2022/03/19 15:27:36;;;;;;;4.88;2.72;;;;;;;12.85;41.82;104234.41;6164947;22;121816;-90
2022/03/19 15:30:04;;;;;;;5.57;2.90;;;;;;;12.59;41.64;104198.75;6164516;22;123254;-92
2022/03/19 15:32:31;;;;;;;4.47;2.30;;;;;;;12.45;41.31;104174.59;6164626;22;119519;-89
2022/03/19 15:35:01;;;;;;;5.10;2.28;;;;;;;12.77;41.26;104232.75;6165216;22;122195;-91
2022/03/19 15:37:28;;;;;;;5.70;2.60;;;;;;;12.68;41.03;104218.50;6164835;22;122867;-91
2022/03/19 15:39:54;;;;;;;5.93;2.30;;;;;;;12.55;41.48;104206.19;6140723;22;119345;-91
2022/03/19 15:42:20;;;;;;;5.05;2.40;;;;;;;12.67;40.99;104211.41;6140607;22;121821;-91
2022/03/19 15:44:45;;;;;;;6.28;2.53;;;;;;;12.59;40.97;104198.75;6195260;22;120074;-92
2022/03/19 15:47:11;;;;;;;6.68;2.50;;;;;;;12.38;41.26;104169.03;6165863;22;121470;-92
2022/03/19 15:49:37;;;;;;;6.72;2.40;;;;;;;12.45;40.41;104191.13;6139288;22;122574;-88
2022/03/19 15:52:03;;;;;;;5.78;2.30;;;;;;;12.47;40.81;104196.25;6139615;22;119379;-90
2022/03/19 15:54:29;;;;;;;5.88;2.53;;;;;;;12.60;41.07;104220.41;6140002;22;122253;-88
2022/03/19 15:56:55;;;;;;;6.00;2.10;;;;;;;12.48;41.27;104197.84;6164276;22;120219;-91
2022/03/19 15:59:23;;;;;;;5.50;2.15;;;;;;;12.56;41.37;104194.00;6140345;22;119385;-89
2022/03/19 16:01:49;;;;;;;4.80;2.25;;;;;;;12.58;41.73;104202.66;6139430;22;121448;-88
2022/03/19 16:04:17;;;;;;;4.72;2.28;;;;;;;12.47;41.86;104177.75;6138884;22;122534;-93
2022/03/19 16:06:44;;;;;;;6.90;2.00;;;;;;;12.44;40.37;104183.25;6169276;22;119557;-91
2022/03/19 16:09:11;;;;;;;4.88;2.42;;;;;;;12.35;40.54;104160.75;6188888;22;123199;-87
2022/03/19 16:11:36;;;;;;;6.82;2.35;;;;;;;12.51;40.82;104197.06;6164797;22;119567;-88
2022/03/19 16:14:02;;;;;;;4.68;2.20;;;;;;;12.47;41.17;104199.00;6189479;22;122728;-88
2022/03/19 16:16:28;;;;;;;5.82;2.25;;;;;;;12.31;41.33;104177.22;6139222;22;122957;-88
2022/03/19 16:18:54;;;;;;;5.45;2.15;;;;;;;12.13;41.21;104149.50;6164412;22;119700;-88
2022/03/19 16:21:19;;;;;;;7.20;2.30;;;;;;;12.15;41.04;104154.63;6190351;22;119338;-90
2022/03/19 16:23:45;;;;;;;4.80;2.10;;;;;;;12.16;41.42;104157.00;6189665;22;120697;-87
2022/03/19 16:26:14;;;;;;;5.68;2.30;;;;;;;12.14;41.43;104156.59;6164562;22;119919;-88
2022/03/19 16:28:45;;;;;;;4.53;2.10;;;;;;;12.06;42.00;104154.91;6144203;22;121842;-91
2022/03/19 16:31:11;;;;;;;5.72;2.33;;;;;;;11.96;41.69;104122.56;6217327;22;119296;-91
2022/03/19 16:33:37;;;;;;;8.73;3.47;;;;;;;12.20;41.84;104160.56;6163551;22;121743;-94
2022/03/19 16:36:05;;;;;;;5.63;3.05;;;;;;;12.35;41.84;104171.75;6138808;22;122693;-89
2022/03/19 16:38:32;;;;;;;8.48;3.22;;;;;;;12.01;41.95;104115.94;6189585;22;119653;-90
2022/03/19 16:41:01;;;;;;;9.52;3.35;;;;;;;12.26;41.87;104177.53;6139307;22;122007;-92
2022/03/19 16:43:27;;;;;;;7.00;2.70;;;;;;;12.24;41.58;104172.41;6138716;22;122534;-90
2022/03/19 16:45:55;;;;;;;8.65;3.03;;;;;;;12.22;41.34;104174.75;6139313;22;119496;-89
2022/03/19 16:48:38;;;;;;;7.00;3.00;;;;;;;12.06;41.25;104148.63;6147311;22;121573;-91
2022/03/19 16:51:04;;;;;;;4.83;2.53;;;;;;;12.04;41.56;104143.50;6164684;22;119395;-90
2022/03/19 16:53:29;;;;;;;7.43;2.92;;;;;;;12.01;41.77;104152.50;6139171;22;121730;-90
2022/03/19 16:55:59;;;;;;;6.10;2.63;;;;;;;11.76;42.10;104118.38;6164325;22;120755;-88
2022/03/19 16:58:27;;;;;;;7.95;2.60;;;;;;;11.85;42.22;104135.44;6163498;22;119315;-92
2022/03/19 17:00:55;;;;;;;5.85;2.53;;;;;;;11.98;42.40;104154.03;6164736;22;120602;-90
2022/03/19 17:03:21;;;;;;;5.05;2.25;;;;;;;11.85;42.60;104132.69;6187811;22;121756;-90
2022/03/19 17:05:51;;;;;;;7.18;2.67;;;;;;;11.88;42.25;104151.97;6164471;22;119580;-90
2022/03/19 17:08:17;;;;;;;7.72;2.72;;;;;;;11.59;42.65;104114.25;6164023;22;119530;-90
2022/03/19 17:10:50;;;;;;;6.20;3.00;;;;;;;11.62;42.81;104122.56;6170262;22;120193;-90
2022/03/19 17:13:18;;;;;;;8.13;2.70;;;;;;;11.54;43.20;104109.88;6164265;22;121366;-90
2022/03/19 17:15:51;;;;;;;8.48;2.85;;;;;;;11.52;43.24;104117.69;6138684;22;123037;-90
2022/03/19 17:18:19;;;;;;;8.80;3.17;;;;;;;11.69;43.63;104152.88;6164955;22;119464;-90
2022/03/19 17:20:49;;;;;;;8.13;3.40;;;;;;;11.62;43.57;104135.50;6138818;22;121924;-90
2022/03/19 17:23:25;;;;;;;9.02;3.55;;;;;;;11.34;43.83;104109.22;6140174;22;122936;-91
2022/03/19 17:25:53;;;;;;;9.13;3.30;;;;;;;11.52;43.92;104155.41;6139136;22;119236;-91
2022/03/19 17:28:21;;;;;;;11.73;3.60;;;;;;;11.60;44.30;104170.84;6161283;22;122052;-90
2022/03/19 17:30:59;;;;;;;9.18;3.72;;;;;;;11.37;44.91;104154.44;6164199;22;122711;-91
2022/03/19 17:33:25;;;;;;;9.82;3.30;;;;;;;11.11;44.45;104121.44;6167997;22;119625;-92
2022/03/19 17:35:51;;;;;;;7.60;3.50;;;;;;;11.30;44.80;104140.56;6161869;22;122612;-91
2022/03/19 17:38:18;;;;;;;7.97;3.63;;;;;;;11.23;44.89;104143.22;6138006;22;119600;-90
2022/03/19 17:40:45;;;;;;;8.13;3.00;;;;;;;11.08;45.51;104139.47;6138079;22;121787;-91
2022/03/19 17:43:12;;;;;;;5.75;2.80;;;;;;;10.91;45.06;104113.31;6137171;22;122669;-90
2022/03/19 17:45:38;;;;;;;8.57;3.00;;;;;;;11.23;45.40;104173.44;6162884;22;119338;-92
2022/03/19 17:48:04;;;;;;;10.07;3.40;;;;;;;11.04;44.87;104150.41;6137726;22;122265;-89
2022/03/19 17:50:30;;;;;;;8.50;3.10;;;;;;;10.64;45.29;104090.50;6161882;22;122550;-92
2022/03/19 17:52:58;;;;;;;6.72;3.03;;;;;;;10.92;44.85;104147.88;6138407;22;119272;-90
2022/03/19 17:55:25;;;;;;;10.15;3.20;;;;;;;11.00;44.32;104155.06;6142028;22;121756;-91
2022/03/19 17:57:58;;;;;;;9.52;3.22;;;;;;;10.60;44.36;104099.88;6138180;22;119293;-90
2022/03/19 18:00:28;;;;;;;9.30;2.90;;;;;;;10.59;43.69;104112.00;6138306;22;121810;-89
2022/03/19 18:02:57;;;;;;;7.10;3.03;;;;;;;10.79;44.23;104154.72;6188805;22;120199;-89
2022/03/19 18:05:24;;;;;;;8.40;3.00;;;;;;;10.75;43.96;104149.16;6137474;22;119598;-89
2022/03/19 18:07:52;;;;;;;8.55;3.08;;;;;;;10.87;43.91;104172.09;6138440;22;121541;-90
2022/03/19 18:10:20;;;;;;;7.05;3.13;;;;;;;10.80;43.49;104166.50;6138883;22;121761;-89
2022/03/19 18:12:46;;;;;;;9.88;3.00;;;;;;;10.76;44.08;104175.47;6139107;22;118952;-89
2022/03/19 18:15:13;;;;;;;8.55;3.55;;;;;;;10.64;44.14;104159.16;6138249;22;121789;-90
2022/03/19 18:17:46;;;;;;;9.00;3.30;;;;;;;10.80;44.09;104185.72;6143519;22;122182;-90
2022/03/19 18:20:17;;;;;;;8.10;3.50;;;;;;;10.42;44.39;104130.56;6163812;22;119294;-90
2022/03/19 18:22:49;;;;;;;8.87;3.50;;;;;;;10.32;44.52;104100.19;6139419;22;122864;-90
2022/03/19 18:25:17;;;;;;;6.38;3.25;;;;;;;10.62;45.13;104157.94;6163515;22;119236;-90
2022/03/19 18:27:46;;;;;;;9.18;3.45;;;;;;;10.52;44.82;104148.38;6163907;22;122231;-91
2022/03/19 18:30:26;;;;;;;;;;;;;;;;;;;;;
2022/03/19 18:32:53;;;;;;;7.47;3.47;;;;;;;10.52;45.07;104144.84;6164040;22;119234;-89
2022/03/19 18:35:18;;;;;;;8.40;3.63;;;;;;;10.48;45.19;104154.97;6189673;22;119071;-88
2022/03/19 18:37:47;;;;;;;8.93;3.70;;;;;;;10.65;45.27;104168.22;6139689;22;123095;-91
2022/03/19 18:40:15;;;;;;;9.73;3.67;;;;;;;10.42;45.68;104136.06;6145028;22;118484;-90
2022/03/19 18:42:41;;;;;;;6.25;3.45;;;;;;;10.34;45.72;104120.59;6138446;22;122616;-88
2022/03/19 18:48:00;;;;;;;5.97;3.50;;;;;;;10.25;46.72;104117.31;6101207;23;119805;-89
2022/03/19 18:50:26;;;;;;;7.55;3.47;;;;;;;10.31;47.15;104128.78;6070052;23;119959;-89
2022/03/19 18:52:52;;;;;;;8.63;3.58;;;;;;;10.18;47.25;104108.16;6097070;23;119022;-90
2022/03/19 19:02:24;;;;;;;10.77;3.70;;;;;;;10.30;47.44;104158.19;4997948;27;119780;-88
2022/03/19 19:07:57;;;;;;;9.07;3.92;;;;;;;10.24;48.30;104156.09;4937088;28;118932;-86
2022/03/19 19:10:23;;;;;;;9.07;4.25;;;;;;;10.11;48.04;104131.53;4912695;28;118618;-87
2022/03/19 19:20:31;;;;;;;8.77;4.30;;;;;;;9.79;48.75;104091.72;4928688;28;119923;-86
2022/03/19 19:35:49;;;;;;;8.32;4.82;;;;;;;9.61;49.85;104079.59;4948305;28;121613;-87
2022/03/19 19:38:41;;;;;;;12.25;4.82;;;;;;;9.75;49.95;104105.38;4938154;28;118668;-87
2022/03/19 19:45:11;;;;;;;9.90;4.88;;;;;;;9.65;50.10;104094.97;4930459;28;119578;-87
2022/03/19 20:00:35;;;;;;;12.20;5.75;;;;;;;9.66;51.13;104103.97;4893173;28;121721;-85
2022/03/19 20:27:01;;;;;;;10.00;6.00;;;;;;;9.65;52.24;104110.63;4896589;28;120280;-89
2022/03/19 20:32:14;;;;;;;10.15;5.78;;;;;;;9.70;52.68;104116.63;4990868;23;120875;-85
2022/03/19 20:35:22;;;;;;;10.55;6.35;;;;;;;9.69;53.19;104115.00;4918630;23;120716;31
2022/03/19 20:47:01;;;;;;;12.65;6.72;;;;;;;9.33;53.20;104068.84;4997106;23;120842;-88
2022/03/19 23:27:47;;;;;;;12.15;8.43;;;;;;;8.49;60.74;104017.28;4905268;23;119110;31
